createdAt,value
2018-09-12T00:00:02.743Z,42.32
2018-09-12T00:02:31.856Z,42.35
2018-09-12T00:05:00.823Z,42.26
2018-09-12T00:07:30.139Z,42.63
2018-09-12T00:09:59.226Z,42.48
2018-09-12T00:12:28.447Z,42.55
2018-09-12T00:14:57.681Z,41.75
2018-09-12T00:17:26.991Z,42.13
2018-09-12T00:19:56.233Z,42.30
2018-09-12T00:22:25.395Z,42.33
2018-09-12T00:24:54.471Z,42.26
2018-09-12T00:27:23.772Z,42.51
2018-09-12T00:29:52.979Z,41.93
2018-09-12T00:32:22.182Z,41.75
2018-09-12T00:34:51.512Z,42.58
2018-09-12T00:37:20.651Z,42.53
2018-09-12T00:39:49.945Z,42.65
2018-09-12T00:42:19.412Z,43.04
2018-09-12T00:44:48.763Z,42.91
2018-09-12T00:47:17.781Z,42.35
2018-09-12T00:49:46.892Z,42.48
2018-09-12T00:52:16.137Z,42.55
2018-09-12T00:54:45.390Z,43.15
2018-09-12T00:57:14.732Z,42.23
2018-09-12T00:59:43.777Z,42.30
2018-09-12T01:02:13.134Z,43.29
2018-09-12T01:04:42.385Z,42.66
2018-09-12T01:07:11.672Z,42.92
2018-09-12T01:09:40.847Z,43.59
2018-09-12T01:12:10.142Z,43.03
2018-09-12T01:14:39.438Z,43.89
2018-09-12T01:17:08.600Z,43.44
2018-09-12T01:19:37.703Z,43.69
2018-09-12T01:22:07.005Z,43.70
2018-09-12T01:24:36.210Z,44.65
2018-09-12T01:27:05.592Z,43.55
2018-09-12T01:29:34.708Z,44.50
2018-09-12T01:32:04.102Z,43.84
2018-09-12T01:34:33.452Z,44.26
2018-09-12T01:37:02.641Z,44.69
2018-09-12T01:39:31.903Z,44.02
2018-09-12T01:42:00.709Z,44.63
2018-09-12T01:44:30.039Z,44.25
2018-09-12T01:46:59.167Z,44.38
2018-09-12T01:49:28.186Z,44.29
2018-09-12T01:51:57.256Z,44.44
2018-09-12T01:54:26.072Z,45.38
2018-09-12T01:56:55.395Z,44.37
2018-09-12T01:59:24.429Z,45.38
2018-09-12T02:01:53.683Z,44.77
2018-09-12T02:04:22.859Z,44.76
2018-09-12T02:06:52.005Z,45.26
2018-09-12T02:09:21.116Z,44.88
2018-09-12T02:11:50.359Z,44.70
2018-09-12T02:14:19.449Z,44.71
2018-09-12T02:16:48.551Z,44.59
2018-09-12T02:19:17.767Z,45.36
2018-09-12T02:21:46.660Z,44.74
2018-09-12T02:24:15.931Z,45.37
2018-09-12T02:26:45.148Z,45.05
2018-09-12T02:29:14.148Z,45.25
2018-09-12T02:31:43.547Z,46.04
2018-09-12T02:34:12.839Z,46.18
2018-09-12T02:36:42.150Z,46.38
2018-09-12T02:39:11.083Z,46.29
2018-09-12T02:41:40.075Z,45.87
2018-09-12T02:44:09.468Z,45.20
2018-09-12T02:46:38.946Z,45.88
2018-09-12T02:49:08.281Z,46.27
2018-09-12T02:51:37.720Z,45.97
2018-09-12T02:54:07.091Z,47.24
2018-09-12T02:56:36.477Z,45.69
2018-09-12T02:59:05.387Z,46.16
2018-09-12T03:01:34.430Z,46.28
2018-09-12T03:04:19.400Z,46.62
2018-09-12T03:06:48.592Z,46.47
2018-09-12T03:09:17.928Z,46.64
2018-09-12T03:11:46.936Z,46.33
2018-09-12T03:14:16.309Z,46.70
2018-09-12T03:16:45.567Z,46.95
2018-09-12T03:19:14.876Z,46.46
2018-09-12T03:21:44.017Z,46.69
2018-09-12T03:24:13.410Z,46.56
2018-09-12T03:26:42.360Z,47.31
2018-09-12T03:29:11.759Z,47.96
2018-09-12T03:31:40.781Z,47.61
2018-09-12T03:34:09.899Z,48.22
2018-09-12T03:36:39.140Z,48.07
2018-09-12T03:39:10.273Z,49.33
2018-09-12T03:41:40.017Z,49.15
2018-09-12T03:44:09.751Z,49.38
2018-09-12T03:46:39.252Z,49.22
2018-09-12T03:49:08.305Z,49.18
2018-09-12T03:51:37.640Z,49.36
2018-09-12T03:54:06.949Z,49.13
2018-09-12T03:56:36.107Z,48.08
2018-09-12T03:59:05.438Z,48.73
2018-09-12T04:01:34.700Z,48.28
2018-09-12T04:04:03.938Z,48.45
2018-09-12T04:06:33.447Z,48.30
2018-09-12T04:09:02.916Z,47.75
2018-09-12T04:11:32.235Z,48.23
2018-09-12T04:14:01.238Z,47.71
2018-09-12T04:16:30.119Z,47.08
2018-09-12T04:18:59.382Z,47.26
2018-09-12T04:21:28.483Z,47.45
2018-09-12T04:23:57.767Z,47.58
2018-09-12T04:26:27.075Z,47.58
2018-09-12T04:28:56.370Z,47.96
2018-09-12T04:31:25.713Z,48.16
2018-09-12T04:33:54.598Z,48.01
2018-09-12T04:36:23.858Z,48.00
2018-09-12T04:38:53.033Z,48.05
2018-09-12T04:41:22.216Z,47.94
2018-09-12T04:43:51.620Z,47.83
2018-09-12T04:46:20.680Z,47.46
2018-09-12T04:48:49.908Z,47.68
2018-09-12T04:51:19.123Z,47.49
2018-09-12T04:53:47.989Z,47.88
2018-09-12T04:56:17.270Z,48.44
2018-09-12T04:58:46.628Z,48.08
2018-09-12T05:01:15.801Z,47.63
2018-09-12T05:03:45.092Z,48.07
2018-09-12T05:06:14.193Z,47.46
2018-09-12T05:08:43.552Z,48.43
2018-09-12T05:11:12.769Z,48.12
2018-09-12T05:13:42.050Z,47.68
2018-09-12T05:16:11.465Z,48.13
2018-09-12T05:18:40.811Z,47.59
2018-09-12T05:21:10.130Z,47.23
2018-09-12T05:23:39.055Z,47.21
2018-09-12T05:26:08.402Z,47.31
2018-09-12T05:28:37.584Z,47.17
2018-09-12T05:31:06.835Z,48.02
2018-09-12T05:33:36.157Z,46.96
2018-09-12T05:36:05.492Z,47.66
2018-09-12T05:38:34.807Z,46.90
2018-09-12T05:41:04.194Z,46.80
2018-09-12T05:43:33.555Z,46.24
2018-09-12T05:46:03.048Z,46.29
2018-09-12T05:48:31.847Z,46.97
2018-09-12T05:51:00.868Z,46.07
2018-09-12T05:53:30.120Z,45.91
2018-09-12T05:55:59.371Z,46.29
2018-09-12T05:58:28.728Z,47.24
2018-09-12T06:00:58.084Z,46.42
2018-09-12T06:03:27.419Z,47.02
2018-09-12T06:05:56.563Z,46.51
2018-09-12T06:08:25.759Z,47.31
2018-09-12T06:10:54.818Z,46.26
2018-09-12T06:13:24.174Z,45.19
2018-09-12T06:15:53.216Z,44.92
2018-09-12T06:18:22.430Z,43.61
2018-09-12T06:20:51.525Z,44.61
2018-09-12T06:23:20.607Z,43.30
2018-09-12T06:25:49.804Z,42.98
2018-09-12T06:28:19.156Z,43.80
2018-09-12T06:30:48.740Z,44.35
2018-09-12T06:33:18.288Z,43.99
2018-09-12T06:35:47.792Z,43.80
2018-09-12T06:38:17.232Z,43.20
2018-09-12T06:40:47.673Z,43.18
2018-09-12T06:43:17.170Z,43.05
2018-09-12T06:45:46.753Z,42.91
2018-09-12T06:48:16.303Z,43.67
2018-09-12T06:53:13.651Z,42.72
2018-09-12T06:55:43.043Z,42.60
2018-09-12T06:58:12.652Z,42.53
2018-09-12T07:00:42.128Z,41.58
2018-09-12T07:03:11.660Z,42.75
2018-09-12T07:05:41.115Z,42.39
2018-09-12T07:08:10.702Z,42.30
2018-09-12T07:10:40.367Z,41.90
2018-09-12T07:13:09.896Z,40.94
2018-09-12T07:15:40.231Z,40.69
2018-09-12T07:18:09.858Z,40.81
2018-09-12T07:20:39.188Z,41.36
2018-09-12T07:23:08.699Z,41.42
2018-09-12T07:25:38.244Z,41.16
2018-09-12T07:28:07.859Z,40.64
2018-09-12T07:30:37.517Z,40.09
2018-09-12T07:33:06.787Z,40.10
2018-09-12T07:35:36.258Z,39.65
2018-09-12T07:38:05.987Z,39.56
2018-09-12T07:40:35.501Z,38.42
2018-09-12T07:43:05.132Z,38.41
2018-09-12T07:45:34.321Z,37.09
2018-09-12T07:48:04.016Z,34.99
2018-09-12T07:50:33.655Z,34.12
2018-09-12T07:53:03.252Z,33.21
2018-09-12T07:55:32.833Z,33.41
2018-09-12T07:58:02.353Z,31.77
2018-09-12T08:00:31.957Z,31.79
2018-09-12T08:03:01.494Z,33.07
2018-09-12T08:05:30.724Z,34.05
2018-09-12T08:08:00.073Z,33.70
2018-09-12T08:10:29.247Z,34.06
2018-09-12T08:12:58.829Z,34.91
2018-09-12T08:15:28.430Z,35.59
2018-09-12T08:17:57.907Z,35.10
2018-09-12T08:20:27.219Z,35.69
2018-09-12T08:22:56.920Z,35.33
2018-09-12T08:25:26.679Z,34.17
2018-09-12T08:27:56.124Z,33.16
2018-09-12T08:30:25.448Z,33.75
2018-09-12T08:32:54.669Z,32.64
2018-09-12T08:35:24.040Z,32.03
2018-09-12T08:37:53.663Z,31.03
2018-09-12T08:40:23.258Z,31.09
2018-09-12T08:42:52.928Z,30.15
2018-09-12T08:45:22.401Z,30.34
2018-09-12T08:47:52.048Z,30.63
2018-09-12T08:50:23.929Z,29.91
2018-09-12T08:52:54.711Z,30.15
2018-09-12T08:55:24.282Z,29.04
2018-09-12T08:57:54.040Z,29.79
2018-09-12T09:00:27.493Z,30.29
2018-09-12T09:02:57.069Z,30.40
2018-09-12T09:05:26.428Z,30.50
2018-09-12T09:07:55.647Z,30.60
2018-09-12T09:10:25.280Z,30.24
2018-09-12T09:12:55.815Z,29.74
2018-09-12T09:15:26.088Z,29.41
2018-09-12T09:17:55.647Z,29.53
2018-09-12T09:20:25.032Z,28.44
2018-09-12T09:22:54.739Z,28.61
2018-09-12T09:25:24.267Z,28.01
2018-09-12T09:27:53.743Z,29.93
2018-09-12T09:30:24.564Z,28.64
2018-09-12T09:32:54.052Z,27.22
2018-09-12T09:35:24.005Z,26.29
2018-09-12T09:37:53.387Z,25.53
2018-09-12T09:40:23.011Z,25.61
2018-09-12T09:42:52.625Z,25.31
2018-09-12T09:45:22.070Z,24.18
2018-09-12T09:47:51.562Z,23.65
2018-09-12T09:50:21.025Z,22.57
2018-09-12T09:52:50.476Z,22.67
2018-09-12T09:55:19.971Z,22.97
2018-09-12T09:57:49.561Z,23.91
2018-09-12T10:00:24.053Z,23.85
2018-09-12T10:02:58.124Z,23.20
2018-09-12T10:05:32.556Z,23.58
2018-09-12T10:08:06.931Z,22.65
2018-09-12T10:10:36.588Z,21.40
2018-09-12T10:13:06.302Z,18.78
2018-09-12T10:15:36.258Z,16.63
2018-09-12T10:18:05.906Z,17.11
2018-09-12T10:20:35.723Z,15.11
2018-09-12T10:23:05.423Z,13.05
2018-09-12T10:25:35.042Z,13.21
2018-09-12T10:28:06.488Z,13.82
2018-09-12T10:30:35.967Z,12.41
2018-09-12T10:33:06.343Z,11.66
2018-09-12T10:35:36.501Z,11.47
2018-09-12T10:38:06.253Z,10.07
2018-09-12T10:40:35.699Z,10.32
2018-09-12T10:43:05.279Z,11.21
2018-09-12T10:45:34.723Z,10.31
2018-09-12T10:48:04.248Z,10.60
2018-09-12T10:50:33.821Z,10.21
2018-09-12T10:53:03.505Z,10.39
2018-09-12T10:55:32.919Z,9.07
2018-09-12T10:58:02.476Z,8.89
2018-09-12T11:00:32.083Z,7.97
2018-09-12T11:03:01.542Z,8.56
2018-09-12T11:05:31.111Z,8.54
2018-09-12T11:08:00.616Z,7.89
2018-09-12T11:10:30.194Z,9.75
2018-09-12T11:13:00.307Z,11.36
2018-09-12T11:15:30.028Z,11.57
2018-09-12T11:17:59.557Z,12.52
2018-09-12T11:20:28.759Z,13.99
2018-09-12T11:22:58.079Z,14.87
2018-09-12T11:25:27.327Z,15.73
2018-09-12T11:27:56.546Z,17.35
2018-09-12T11:30:25.744Z,18.38
2018-09-12T11:32:54.961Z,19.53
2018-09-12T11:35:24.205Z,20.41
2018-09-12T11:37:53.391Z,20.52
2018-09-12T11:40:22.633Z,18.71
2018-09-12T11:42:51.892Z,18.08
2018-09-12T11:45:21.076Z,18.44
2018-09-12T11:47:50.325Z,18.82
2018-09-12T11:50:20.908Z,18.99
2018-09-12T11:52:50.147Z,19.63
2018-09-12T11:55:19.806Z,20.85
2018-09-12T11:57:49.160Z,21.31
2018-09-12T12:00:18.403Z,22.47
2018-09-12T12:02:47.679Z,23.23
2018-09-12T12:05:16.894Z,23.36
2018-09-12T12:07:46.197Z,24.11
2018-09-12T12:10:15.510Z,25.32
2018-09-12T12:12:44.699Z,25.08
2018-09-12T12:15:14.332Z,25.44
2018-09-12T12:17:43.486Z,27.24
2018-09-12T12:22:50.971Z,29.52
2018-09-12T12:25:20.518Z,32.73
2018-09-12T12:27:49.976Z,33.07
2018-09-12T12:30:19.196Z,33.99
2018-09-12T12:32:48.763Z,36.03
2018-09-12T12:35:18.483Z,36.67
2018-09-12T12:37:49.156Z,34.03
2018-09-12T12:40:18.684Z,34.87
2018-09-12T12:42:48.193Z,34.57
2018-09-12T12:45:18.767Z,34.18
2018-09-12T12:47:48.063Z,34.90
2018-09-12T12:50:17.327Z,35.83
2018-09-12T12:52:46.736Z,36.04
2018-09-12T12:55:16.212Z,36.83
2018-09-12T12:57:45.521Z,36.61
2018-09-12T13:00:15.224Z,35.27
2018-09-12T13:02:44.748Z,35.65
2018-09-12T13:05:14.223Z,36.53
2018-09-12T13:07:43.712Z,36.79
2018-09-12T13:10:13.504Z,37.73
2018-09-12T13:12:42.712Z,38.22
2018-09-12T13:15:12.107Z,38.45
2018-09-12T13:17:41.617Z,38.67
2018-09-12T13:20:11.280Z,39.12
2018-09-12T13:22:40.595Z,39.68
2018-09-12T13:25:10.195Z,39.19
2018-09-12T13:27:39.712Z,39.67
2018-09-12T13:30:09.228Z,40.30
2018-09-12T13:32:38.963Z,40.40
2018-09-12T13:35:08.221Z,40.55
2018-09-12T13:37:37.403Z,40.01
2018-09-12T13:40:07.112Z,40.32
2018-09-12T13:42:36.449Z,40.31
2018-09-12T13:45:06.116Z,40.62
2018-09-12T13:47:35.271Z,40.66
2018-09-12T13:50:04.996Z,41.84
2018-09-12T13:52:34.579Z,42.04
2018-09-12T13:55:04.315Z,41.66
2018-09-12T13:57:33.511Z,42.35
2018-09-12T14:00:03.040Z,41.90
2018-09-12T14:02:32.219Z,42.53
2018-09-12T14:05:01.712Z,42.76
2018-09-12T14:07:31.287Z,42.39
2018-09-12T14:10:00.798Z,42.45
2018-09-12T14:12:29.914Z,42.78
2018-09-12T14:14:59.436Z,41.95
2018-09-12T14:17:29.082Z,42.03
2018-09-12T14:19:58.371Z,42.82
2018-09-12T14:22:27.684Z,42.59
2018-09-12T14:24:57.044Z,41.54
2018-09-12T14:27:26.231Z,41.98
2018-09-12T14:29:55.644Z,42.65
2018-09-12T14:32:25.135Z,42.66
2018-09-12T14:34:54.597Z,41.99
2018-09-12T14:37:24.177Z,42.46
2018-09-12T14:39:53.461Z,41.74
2018-09-12T14:42:22.783Z,41.27
2018-09-12T14:44:51.870Z,41.56
2018-09-12T14:47:21.465Z,42.24
2018-09-12T14:49:50.347Z,42.25
2018-09-12T14:52:19.668Z,41.84
2018-09-12T14:54:48.986Z,41.89
2018-09-12T14:57:18.327Z,41.88
2018-09-12T14:59:47.567Z,41.93
2018-09-12T15:02:16.780Z,42.21
2018-09-12T15:04:46.109Z,42.16
2018-09-12T15:07:15.144Z,41.50
2018-09-12T15:09:44.359Z,41.49
2018-09-12T15:12:13.624Z,41.18
2018-09-12T15:14:42.859Z,41.65
2018-09-12T15:17:12.019Z,41.99
2018-09-12T15:19:42.303Z,41.85
2018-09-12T15:22:11.578Z,42.76
2018-09-12T15:24:40.652Z,42.40
2018-09-12T15:27:09.987Z,42.78
2018-09-12T15:29:39.360Z,43.32
2018-09-12T15:32:08.663Z,43.11
2018-09-12T15:34:38.260Z,42.59
2018-09-12T15:37:07.633Z,42.97
2018-09-12T15:39:36.992Z,43.14
2018-09-12T15:42:06.339Z,42.99
2018-09-12T15:44:35.718Z,42.69
2018-09-12T15:47:05.351Z,42.48
2018-09-12T15:49:34.896Z,42.44
2018-09-12T15:52:04.460Z,42.64
2018-09-12T15:54:33.505Z,42.63
2018-09-12T15:57:02.956Z,42.25
2018-09-12T15:59:32.452Z,42.78
2018-09-12T16:02:01.656Z,42.67
2018-09-12T16:04:31.054Z,42.37
2018-09-12T16:07:00.152Z,42.71
2018-09-12T16:09:29.147Z,42.93
2018-09-12T16:11:58.252Z,42.77
2018-09-12T16:14:27.404Z,43.16
2018-09-12T16:16:56.949Z,43.20
2018-09-12T16:19:26.156Z,43.09
2018-09-12T16:21:55.412Z,42.66
2018-09-12T16:24:24.960Z,43.57
2018-09-12T16:26:54.429Z,42.63
2018-09-12T16:29:23.758Z,43.25
2018-09-12T16:31:53.222Z,42.62
2018-09-12T16:34:22.367Z,42.85
2018-09-12T16:36:51.425Z,43.37
2018-09-12T16:39:20.914Z,43.11
2018-09-12T16:41:50.258Z,42.99
2018-09-12T16:44:19.600Z,43.16
2018-09-12T16:46:49.133Z,42.93
2018-09-12T16:49:18.621Z,43.39
2018-09-12T16:51:47.958Z,44.08
2018-09-12T16:54:17.080Z,42.94
2018-09-12T16:56:46.611Z,43.44
2018-09-12T16:59:15.835Z,43.96
2018-09-12T17:01:45.168Z,42.97
2018-09-12T17:04:14.717Z,43.03
2018-09-12T17:06:44.103Z,44.01
2018-09-12T17:09:13.594Z,43.03
2018-09-12T17:11:43.088Z,43.74
2018-09-12T17:14:12.415Z,43.36
2018-09-12T17:16:41.444Z,44.03
2018-09-12T17:19:10.613Z,43.20
2018-09-12T17:21:40.828Z,43.64
2018-09-12T17:24:10.206Z,43.98
2018-09-12T17:26:39.650Z,44.34
2018-09-12T17:29:09.060Z,43.74
2018-09-12T17:31:38.578Z,43.34
2018-09-12T17:34:08.257Z,43.60
2018-09-12T17:36:37.899Z,43.20
2018-09-12T17:39:09.324Z,43.60
2018-09-12T17:41:38.588Z,43.97
2018-09-12T17:44:08.436Z,44.22
2018-09-12T17:46:37.794Z,44.03
2018-09-12T17:49:07.067Z,43.90
2018-09-12T17:51:36.327Z,43.86
2018-09-12T17:54:05.882Z,43.94
2018-09-12T17:56:35.157Z,43.84
2018-09-12T17:59:04.935Z,44.06
2018-09-12T18:01:34.505Z,44.38
2018-09-12T18:04:05.565Z,43.99
2018-09-12T18:06:35.018Z,44.59
2018-09-12T18:09:05.015Z,44.63
2018-09-12T18:11:34.215Z,44.48
2018-09-12T18:14:04.815Z,44.45
2018-09-12T18:16:34.742Z,44.78
2018-09-12T18:19:07.075Z,44.09
2018-09-12T18:21:37.094Z,44.38
2018-09-12T18:24:07.908Z,45.27
2018-09-12T18:26:38.326Z,44.40
2018-09-12T18:29:08.914Z,44.91
2018-09-12T18:31:39.180Z,45.09
2018-09-12T18:34:08.988Z,44.88
2018-09-12T18:36:40.040Z,44.62
2018-09-12T18:39:10.983Z,45.35
2018-09-12T18:41:41.169Z,44.61
2018-09-12T18:44:11.180Z,44.72
2018-09-12T18:46:40.624Z,44.90
2018-09-12T18:49:10.511Z,44.52
2018-09-12T18:51:40.187Z,44.84
2018-09-12T18:54:09.713Z,44.48
2018-09-12T18:56:40.786Z,45.49
2018-09-12T18:59:10.441Z,45.72
2018-09-12T19:01:39.863Z,47.00
2018-09-12T19:04:10.179Z,46.72
2018-09-12T19:06:39.808Z,47.95
2018-09-12T19:09:12.409Z,47.96
2018-09-12T19:11:42.794Z,48.66
2018-09-12T19:14:12.201Z,48.50
2018-09-12T19:16:42.552Z,49.89
2018-09-12T19:19:11.891Z,49.66
2018-09-12T19:21:41.484Z,49.37
2018-09-12T19:24:11.461Z,50.59
2018-09-12T19:26:41.328Z,50.66
2018-09-12T19:29:11.647Z,50.39
2018-09-12T19:31:41.808Z,49.57
2018-09-12T19:34:11.532Z,50.18
2018-09-12T19:36:40.835Z,49.73
2018-09-12T19:39:11.042Z,49.25
2018-09-12T19:41:40.792Z,49.96
2018-09-12T19:44:10.261Z,49.05
2018-09-12T19:46:39.376Z,49.15
2018-09-12T19:49:08.520Z,48.95
2018-09-12T19:51:37.937Z,49.46
2018-09-12T19:54:08.031Z,50.05
2018-09-12T19:56:37.611Z,49.58
2018-09-12T19:59:07.450Z,50.37
2018-09-12T20:01:37.454Z,50.78
2018-09-12T20:04:07.264Z,49.64
2018-09-12T20:06:36.712Z,49.81
2018-09-12T20:09:11.246Z,50.58
2018-09-12T20:11:40.905Z,49.97
2018-09-12T20:14:11.467Z,50.03
2018-09-12T20:16:41.103Z,50.67
2018-09-12T20:19:11.224Z,51.09
2018-09-12T20:21:41.329Z,50.85
2018-09-12T20:24:12.179Z,51.76
2018-09-12T20:26:42.433Z,51.24
2018-09-12T20:29:12.612Z,50.66
2018-09-12T20:31:42.307Z,50.81
2018-09-12T20:34:11.744Z,51.57
2018-09-12T20:36:41.702Z,51.50
2018-09-12T20:39:12.052Z,49.78
2018-09-12T20:41:41.301Z,49.42
2018-09-12T20:44:10.681Z,49.59
2018-09-12T20:46:39.999Z,49.34
2018-09-12T20:49:09.557Z,49.72
2018-09-12T20:51:43.196Z,50.17
2018-09-12T20:54:13.443Z,50.51
2018-09-12T20:56:44.459Z,50.76
2018-09-12T20:59:14.896Z,49.73
2018-09-12T21:01:44.024Z,49.54
2018-09-12T21:04:13.488Z,50.44
2018-09-12T21:06:44.088Z,49.71
2018-09-12T21:09:14.574Z,49.81
2018-09-12T21:11:44.119Z,50.38
2018-09-12T21:14:13.352Z,50.13
2018-09-12T21:16:42.896Z,51.07
2018-09-12T21:19:12.139Z,51.65
2018-09-12T21:21:41.389Z,51.66
2018-09-12T21:24:10.914Z,51.83
2018-09-12T21:26:40.153Z,52.37
2018-09-12T21:29:09.510Z,53.94
2018-09-12T21:31:39.016Z,53.36
2018-09-12T21:34:08.572Z,53.36
2018-09-12T21:36:37.978Z,53.85
2018-09-12T21:39:09.834Z,55.84
2018-09-12T21:41:39.324Z,55.79
2018-09-12T21:44:08.613Z,54.90
2018-09-12T21:46:37.886Z,55.77
2018-09-12T21:49:06.931Z,55.16
2018-09-12T21:51:36.102Z,56.19
2018-09-12T21:54:05.708Z,55.09
2018-09-12T21:56:34.682Z,55.55
2018-09-12T21:59:04.307Z,55.67
2018-09-12T22:01:33.658Z,57.38
2018-09-12T22:04:02.870Z,57.11
2018-09-12T22:06:32.011Z,57.92
2018-09-12T22:09:01.334Z,57.05
2018-09-12T22:11:30.538Z,56.98
2018-09-12T22:13:59.799Z,57.74
2018-09-12T22:16:29.251Z,57.56
2018-09-12T22:18:58.597Z,57.54
2018-09-12T22:21:27.885Z,56.81
2018-09-12T22:23:56.887Z,57.07
2018-09-12T22:26:26.203Z,57.56
2018-09-12T22:28:55.297Z,57.12
2018-09-12T22:31:24.476Z,57.49
2018-09-12T22:33:53.323Z,58.00
2018-09-12T22:36:22.520Z,58.83
2018-09-12T22:38:51.673Z,58.58
2018-09-12T22:41:20.899Z,59.20
2018-09-12T22:43:50.085Z,59.18
2018-09-12T22:46:19.164Z,58.01
2018-09-12T22:48:48.424Z,59.24
2018-09-12T22:51:17.469Z,59.05
2018-09-12T22:53:46.718Z,59.03
2018-09-12T22:56:16.056Z,58.40
2018-09-12T22:58:45.247Z,59.11
2018-09-12T23:01:14.536Z,58.39
2018-09-12T23:03:44.019Z,59.11
2018-09-12T23:06:13.459Z,57.99
2018-09-12T23:08:42.745Z,58.08
2018-09-12T23:11:12.074Z,58.18
2018-09-12T23:13:41.307Z,57.82
2018-09-12T23:16:10.598Z,58.03
2018-09-12T23:18:39.787Z,58.17
2018-09-12T23:21:09.100Z,59.06
2018-09-12T23:23:38.295Z,58.60
2018-09-12T23:26:07.479Z,59.50
2018-09-12T23:28:36.383Z,58.46
2018-09-12T23:31:05.467Z,58.45
2018-09-12T23:33:34.715Z,58.68
2018-09-12T23:36:03.806Z,58.72
2018-09-12T23:38:33.125Z,58.66
2018-09-12T23:41:02.344Z,58.08
2018-09-12T23:43:31.591Z,58.56
2018-09-12T23:46:00.504Z,57.85
2018-09-12T23:48:29.583Z,57.79
2018-09-12T23:50:58.834Z,57.65
2018-09-12T23:53:27.876Z,57.10
2018-09-12T23:55:57.127Z,57.66
2018-09-12T23:58:26.304Z,57.21
